Time;durP1;ratioP1;P1;durP2;ratioP2;P2;SDS_P1;SDS_P2;PMS_P1;PMS_P2;Temp;Humidity;BMP_temperature;BMP_pressure;BME280_temperature;BME280_humidity;BME280_pressure;Samples;Min_cycle;Max_cycle;Signal;HPM_P1;HPM_P2
2021/10/06 00:01:54;;;;;;;0.75;0.60;;;;;;;10.42;100.00;100315.53;4788834;30;20118;-79
2021/10/06 00:04:20;;;;;;;2.05;0.88;;;;;;;10.47;100.00;100324.63;4759189;30;20067;-80
2021/10/06 00:06:47;;;;;;;3.05;0.50;;;;;;;10.47;100.00;100327.31;4792738;29;20039;-80
2021/10/06 00:09:14;;;;;;;1.27;0.50;;;;;;;10.44;100.00;100321.53;4778230;30;20038;-80
2021/10/06 00:11:40;;;;;;;1.15;0.55;;;;;;;10.41;100.00;100316.56;4776714;29;20470;-79
2021/10/06 00:14:07;;;;;;;0.75;0.50;;;;;;;10.41;100.00;100313.88;4773406;29;20046;-79
2021/10/06 00:16:32;;;;;;;1.05;0.50;;;;;;;10.44;100.00;100314.28;4787730;29;20071;-79
2021/10/06 00:18:58;;;;;;;2.25;0.70;;;;;;;10.44;100.00;100305.38;4776732;30;20124;-79
2021/10/06 00:21:24;;;;;;;1.73;0.50;;;;;;;10.47;100.00;100310.34;4791368;29;20046;-79
2021/10/06 00:23:50;;;;;;;2.20;0.52;;;;;;;10.47;100.00;100310.34;4791347;29;20035;-80
2021/10/06 00:26:15;;;;;;;1.90;0.60;;;;;;;10.43;100.00;100311.78;4791561;29;20035;-80
2021/10/06 00:28:41;;;;;;;2.25;0.57;;;;;;;10.45;100.00;100315.94;4792206;29;20050;-80
2021/10/06 00:31:06;;;;;;;2.25;0.68;;;;;;;10.46;100.00;100316.75;4790586;29;20027;-80
2021/10/06 00:33:31;;;;;;;0.82;0.50;;;;;;;10.47;100.00;100327.31;4807771;29;20041;-81
2021/10/06 00:35:57;;;;;;;1.00;0.40;;;;;;;10.45;100.00;100317.78;4779764;29;20070;-80
2021/10/06 00:38:24;;;;;;;2.85;0.70;;;;;;;10.43;100.00;100314.47;4795289;29;20059;-80
2021/10/06 00:40:50;;;;;;;0.77;0.50;;;;;;;10.39;100.00;100307.88;4780562;29;20042;-80
2021/10/06 00:43:16;;;;;;;1.02;0.60;;;;;;;10.48;100.00;100320.88;4777218;30;20031;-79
2021/10/06 00:45:42;;;;;;;0.90;0.60;;;;;;;10.49;100.00;100313.63;4777541;30;20035;-79
2021/10/06 00:48:07;;;;;;;5.45;0.82;;;;;;;10.46;100.00;100306.00;4777031;30;20422;-79
2021/10/06 00:50:33;;;;;;;1.67;0.80;;;;;;;10.53;100.00;100312.22;4776436;30;20031;-79
2021/10/06 00:52:59;;;;;;;1.23;0.60;;;;;;;10.53;100.00;100309.50;4778070;30;20129;-80
2021/10/06 00:55:24;;;;;;;3.00;0.80;;;;;;;10.51;100.00;100295.44;4763268;30;20366;-80
2021/10/06 00:57:49;;;;;;;2.05;0.68;;;;;;;10.61;100.00;100313.84;4778185;30;20123;-80
2021/10/06 01:00:15;;;;;;;2.72;0.70;;;;;;;10.58;100.00;100307.81;4778163;30;20440;-80
2021/10/06 01:02:41;;;;;;;1.58;0.65;;;;;;;10.58;100.00;100304.31;4777991;30;20039;-80
2021/10/06 01:05:08;;;;;;;2.88;0.90;;;;;;;10.62;100.00;100312.78;4793400;30;20071;-80
2021/10/06 01:07:34;;;;;;;1.52;0.80;;;;;;;10.58;100.00;100312.38;4792073;29;20070;-79
2021/10/06 01:10:08;;;;;;;3.10;0.60;;;;;;;10.56;100.00;100314.44;4791294;29;20359;-79
2021/10/06 01:12:34;;;;;;;0.65;0.60;;;;;;;10.45;100.00;100288.22;4776500;29;20084;-80
2021/10/06 01:15:02;;;;;;;1.15;0.40;;;;;;;10.60;100.00;100318.38;4791947;29;20039;-80
2021/10/06 01:17:27;;;;;;;1.13;0.60;;;;;;;10.58;100.00;100304.31;4774120;29;20047;-79
2021/10/06 01:19:53;;;;;;;2.95;0.70;;;;;;;10.62;100.00;100315.47;4790904;29;20477;-79
2021/10/06 01:22:18;;;;;;;1.60;0.50;;;;;;;10.55;100.00;100302.03;4780111;29;20489;-80
2021/10/06 01:24:44;;;;;;;5.38;0.60;;;;;;;10.57;100.00;100308.06;4776960;29;20112;-80
2021/10/06 01:27:10;;;;;;;0.95;0.50;;;;;;;10.60;100.00;100318.38;4761616;29;20366;-79
2021/10/06 01:29:36;;;;;;;2.58;0.50;;;;;;;10.60;100.00;100313.00;4767016;29;20107;-80
2021/10/06 01:32:13;;;;;;;3.38;0.70;;;;;;;10.58;100.00;100312.38;4780383;29;20031;-80
2021/10/06 01:34:39;;;;;;;1.00;0.50;;;;;;;10.60;100.00;100312.19;4776543;29;20054;-80
2021/10/06 01:37:04;;;;;;;3.53;0.68;;;;;;;10.51;100.00;100298.94;4776359;30;20040;-79
2021/10/06 01:39:30;;;;;;;3.08;0.60;;;;;;;10.56;100.00;100314.44;4776999;30;20062;-80
2021/10/06 01:41:55;;;;;;;0.70;0.50;;;;;;;10.53;100.00;100313.03;4759774;30;20036;-80
2021/10/06 01:44:21;;;;;;;2.50;0.55;;;;;;;10.54;100.00;100324.59;4795444;29;20472;-80
2021/10/06 01:46:47;;;;;;;3.08;0.77;;;;;;;10.54;100.00;100321.91;4794033;29;20374;-80
2021/10/06 01:49:13;;;;;;;2.33;0.70;;;;;;;10.57;100.00;100326.88;4775031;30;20047;-80
2021/10/06 01:51:39;;;;;;;1.73;0.60;;;;;;;10.55;100.00;100324.38;4791704;29;20027;-80
2021/10/06 01:54:05;;;;;;;1.48;0.50;;;;;;;10.56;100.00;100330.59;4790826;29;20113;-80
2021/10/06 01:56:31;;;;;;;1.65;0.70;;;;;;;10.56;100.00;100327.91;4761402;30;20039;-80
2021/10/06 01:58:57;;;;;;;2.95;0.60;;;;;;;10.51;100.00;100322.34;4762212;30;20418;-80
2021/10/06 02:01:23;;;;;;;4.95;0.70;;;;;;;10.55;100.00;100334.31;4792001;30;20042;-80
2021/10/06 02:03:48;;;;;;;3.00;0.60;;;;;;;10.63;100.00;100339.50;4793389;30;20043;-80
2021/10/06 02:06:14;;;;;;;2.75;0.73;;;;;;;10.67;100.00;100342.59;4777844;30;20059;-80
2021/10/06 02:08:39;;;;;;;1.88;0.75;;;;;;;10.69;100.00;100338.63;4777171;30;20148;-80
2021/10/06 02:11:05;;;;;;;2.38;0.70;;;;;;;10.72;100.00;100345.44;4792354;29;20046;-80
2021/10/06 02:13:30;;;;;;;2.13;0.57;;;;;;;10.71;100.00;100344.63;4776920;29;20058;-80
2021/10/06 02:15:56;;;;;;;4.03;0.90;;;;;;;10.68;100.00;100345.06;4781002;29;20170;-80
2021/10/06 02:18:22;;;;;;;3.83;0.90;;;;;;;10.68;100.00;100345.06;4774961;29;20047;-80
2021/10/06 02:20:48;;;;;;;2.17;0.80;;;;;;;10.66;100.00;100341.75;4775560;29;20066;-80
2021/10/06 02:23:13;;;;;;;4.82;0.90;;;;;;;10.61;100.00;100332.66;4746005;29;20096;-80
2021/10/06 02:25:39;;;;;;;5.35;0.90;;;;;;;10.71;100.00;100339.25;4777023;29;20144;-80
2021/10/06 02:28:05;;;;;;;3.47;0.98;;;;;;;10.73;100.00;100344.44;4774980;29;20370;-80
2021/10/06 02:30:31;;;;;;;5.07;0.85;;;;;;;10.78;100.00;100345.44;4791400;29;20034;-79
2021/10/06 02:32:56;;;;;;;2.35;0.90;;;;;;;10.81;100.00;100345.00;4791141;29;20031;-79
2021/10/06 02:35:22;;;;;;;1.83;0.80;;;;;;;10.81;100.00;100341.50;4787581;30;20070;-79
2021/10/06 02:37:47;;;;;;;5.13;0.70;;;;;;;10.79;100.00;100343.56;4790039;29;20027;-79
2021/10/06 02:40:16;;;;;;;4.45;0.90;;;;;;;10.78;100.00;100331.97;4790537;29;20043;-80
2021/10/06 02:42:43;;;;;;;3.75;0.75;;;;;;;10.86;100.00;100348.94;4789764;29;20039;-80
2021/10/06 02:45:10;;;;;;;2.92;0.80;;;;;;;10.87;100.00;100348.72;4805446;29;20038;-80
2021/10/06 02:47:38;;;;;;;3.63;0.90;;;;;;;10.87;100.00;100354.13;4804971;29;20081;-80
2021/10/06 02:50:05;;;;;;;1.45;0.80;;;;;;;10.90;100.00;100355.56;4788577;29;20038;-81
2021/10/06 02:52:30;;;;;;;3.25;1.00;;;;;;;10.90;100.00;100358.25;4800571;29;20040;-80
2021/10/06 02:54:55;;;;;;;3.08;1.10;;;;;;;10.90;100.00;100358.25;4776489;29;20050;-81
2021/10/06 02:57:21;;;;;;;2.17;0.90;;;;;;;10.90;100.00;100361.78;4746397;29;20035;-80
2021/10/06 02:59:46;;;;;;;2.63;0.93;;;;;;;10.90;100.00;100363.63;4792820;29;20054;-79
2021/10/06 03:02:12;;;;;;;3.15;1.00;;;;;;;10.92;100.00;100366.94;4775748;30;20035;-80
2021/10/06 03:04:37;;;;;;;3.40;1.00;;;;;;;10.90;100.00;100363.63;4771252;29;20220;-80
2021/10/06 03:07:03;;;;;;;3.53;1.00;;;;;;;10.90;100.00;100366.34;4765315;29;20035;-80
2021/10/06 03:09:28;;;;;;;2.90;1.00;;;;;;;10.94;100.00;100372.94;4795127;29;20532;-80
2021/10/06 03:11:54;;;;;;;3.65;1.02;;;;;;;10.93;100.00;100371.28;4779733;29;20042;-80
2021/10/06 03:14:19;;;;;;;6.88;1.20;;;;;;;10.95;100.00;100363.81;4798048;29;20027;-80
2021/10/06 03:16:44;;;;;;;3.08;1.00;;;;;;;10.94;100.00;100371.06;4793315;29;20050;-80
2021/10/06 03:19:10;;;;;;;4.35;1.23;;;;;;;10.94;100.00;100365.69;4777017;30;20096;-80
2021/10/06 03:21:36;;;;;;;1.67;0.98;;;;;;;10.90;100.00;100363.63;4793335;29;20059;-80
2021/10/06 03:24:02;;;;;;;3.03;1.10;;;;;;;10.87;100.00;100359.50;4773749;30;20063;-79
2021/10/06 03:26:27;;;;;;;2.40;0.80;;;;;;;10.82;100.00;100348.53;4777165;29;20059;-80
2021/10/06 03:28:53;;;;;;;1.45;1.00;;;;;;;10.87;100.00;100362.19;4792080;29;20036;-80
2021/10/06 03:31:18;;;;;;;1.48;1.00;;;;;;;10.90;100.00;100371.72;4763298;30;20035;-79
2021/10/06 03:33:44;;;;;;;2.70;0.95;;;;;;;10.89;100.00;100370.88;4776129;29;20387;-80
2021/10/06 03:36:10;;;;;;;3.97;0.90;;;;;;;10.85;100.00;100360.75;4792670;29;20092;-80
2021/10/06 03:38:37;;;;;;;1.85;1.10;;;;;;;10.95;100.00;100385.34;4791139;29;20043;-80
2021/10/06 03:41:03;;;;;;;1.48;0.93;;;;;;;10.95;100.00;100388.88;4790880;29;20516;-80
2021/10/06 03:43:28;;;;;;;2.58;1.10;;;;;;;10.90;100.00;100371.72;4765866;29;20043;-79
2021/10/06 03:45:53;;;;;;;1.10;1.00;;;;;;;10.98;100.00;100393.00;4765992;29;20046;-80
2021/10/06 03:48:19;;;;;;;3.13;1.10;;;;;;;11.00;100.00;100394.44;4793150;29;20047;-80
2021/10/06 03:50:45;;;;;;;3.42;1.40;;;;;;;10.96;100.00;100387.00;4779288;29;20047;-80
2021/10/06 03:53:11;;;;;;;1.77;1.13;;;;;;;10.99;100.00;100402.72;4777834;29;20102;-80
2021/10/06 03:55:38;;;;;;;4.38;1.25;;;;;;;11.02;100.00;100400.44;4762419;29;20039;-80
2021/10/06 03:58:03;;;;;;;3.92;1.50;;;;;;;11.03;100.00;100402.09;4765396;29;20039;-80
2021/10/06 04:00:29;;;;;;;2.67;1.80;;;;;;;10.99;100.00;100390.13;4791290;29;20095;-81
2021/10/06 04:02:54;;;;;;;5.88;2.00;;;;;;;11.05;100.00;100405.41;4777967;30;20038;-80
2021/10/06 04:05:20;;;;;;;2.85;2.00;;;;;;;11.05;100.00;100404.56;4776164;29;20067;-80
2021/10/06 04:07:46;;;;;;;5.07;1.67;;;;;;;11.07;100.00;100407.06;4776262;30;20054;-78
2021/10/06 04:10:11;;;;;;;2.30;1.80;;;;;;;11.06;100.00;100411.63;4790263;29;20092;-79
2021/10/06 04:12:37;;;;;;;3.65;2.25;;;;;;;10.99;100.00;100405.41;4798261;29;20050;-81
2021/10/06 04:15:03;;;;;;;5.10;2.92;;;;;;;11.03;100.00;100417.44;4793922;29;20039;-80
2021/10/06 04:17:28;;;;;;;7.85;3.22;;;;;;;11.11;100.00;100424.44;4804098;29;20061;-80
2021/10/06 04:19:54;;;;;;;3.58;3.20;;;;;;;11.09;100.00;100430.03;4784152;29;20035;-80
2021/10/06 04:22:19;;;;;;;5.60;3.22;;;;;;;11.09;100.00;100435.41;4781401;29;20047;-80
2021/10/06 04:24:45;;;;;;;6.30;4.43;;;;;;;11.14;100.00;100442.88;4776485;29;20031;-80
2021/10/06 04:27:11;;;;;;;7.30;4.85;;;;;;;11.12;100.00;100451.16;4794088;29;20047;-80
2021/10/06 04:29:37;;;;;;;11.57;6.63;;;;;;;11.15;100.00;100458.00;4780941;29;20481;-80
2021/10/06 04:32:03;;;;;;;17.42;7.50;;;;;;;11.12;100.00;100453.84;4794394;29;20035;-80
2021/10/06 04:34:29;;;;;;;17.20;9.70;;;;;;;11.13;100.00;100458.22;4779418;29;20051;-81
2021/10/06 04:36:54;;;;;;;13.05;8.35;;;;;;;11.16;100.00;100468.56;4770384;29;20036;-80
2021/10/06 04:39:20;;;;;;;13.25;8.90;;;;;;;11.17;100.00;100464.81;4769150;30;20107;-80
2021/10/06 04:41:45;;;;;;;12.20;8.45;;;;;;;11.19;100.00;100467.28;4758002;30;20071;-82
2021/10/06 04:44:11;;;;;;;10.00;8.15;;;;;;;11.15;100.00;100460.69;4766881;30;20047;-80
2021/10/06 04:46:36;;;;;;;11.05;7.03;;;;;;;11.22;100.00;100480.34;4789760;29;20042;-80
2021/10/06 04:49:02;;;;;;;8.48;6.00;;;;;;;11.23;100.00;100477.44;4814083;29;20031;-80
2021/10/06 04:51:28;;;;;;;10.93;5.80;;;;;;;11.25;100.00;100479.91;4765347;29;20122;-81
2021/10/06 04:53:54;;;;;;;6.80;5.32;;;;;;;11.26;100.00;100478.91;4781610;29;20043;-81
2021/10/06 04:56:19;;;;;;;8.45;5.68;;;;;;;11.21;100.00;100479.50;4785920;30;20471;-80
2021/10/06 04:58:45;;;;;;;8.25;6.50;;;;;;;11.28;100.00;100491.09;4806792;29;20039;-81
2021/10/06 05:01:10;;;;;;;7.60;5.18;;;;;;;11.28;100.00;100496.47;4788649;30;20040;-82
2021/10/06 05:03:36;;;;;;;5.57;4.57;;;;;;;11.23;100.00;100490.91;4788331;29;20111;-80
2021/10/06 05:06:01;;;;;;;10.18;4.63;;;;;;;11.20;100.00;100483.25;4796520;29;20628;-81
2021/10/06 05:08:27;;;;;;;6.30;4.32;;;;;;;11.33;100.00;100508.50;4803661;29;20047;-80
2021/10/06 05:10:53;;;;;;;9.55;3.85;;;;;;;11.33;100.00;100508.50;4796419;29;20379;-80
2021/10/06 05:13:19;;;;;;;6.93;4.28;;;;;;;11.34;100.00;100513.66;4800983;29;20031;-81
2021/10/06 05:15:44;;;;;;;7.15;3.63;;;;;;;11.29;100.00;100511.63;4784576;30;20122;-80
2021/10/06 05:18:09;;;;;;;7.45;4.95;;;;;;;11.37;100.00;100532.09;4787802;29;20067;-81
2021/10/06 05:20:35;;;;;;;8.88;4.97;;;;;;;11.38;100.00;100531.06;4803341;29;20089;-80
2021/10/06 05:23:00;;;;;;;9.25;4.95;;;;;;;11.40;100.00;100525.47;4770220;30;20035;-81
2021/10/06 05:25:26;;;;;;;9.15;5.13;;;;;;;11.38;100.00;100528.38;4786333;30;20035;-80
2021/10/06 05:27:52;;;;;;;12.65;6.50;;;;;;;11.43;100.00;100530.44;4785802;30;20035;-80
2021/10/06 05:30:18;;;;;;;6.65;5.40;;;;;;;11.43;100.00;100533.97;4793472;29;20023;-79
2021/10/06 05:32:46;;;;;;;5.95;4.88;;;;;;;11.42;100.00;100528.78;4786464;29;20027;-80
2021/10/06 05:35:11;;;;;;;8.90;6.18;;;;;;;11.39;100.00;100523.81;4778747;30;20053;-80
2021/10/06 05:37:38;;;;;;;5.85;5.30;;;;;;;11.42;100.00;100526.06;4778477;30;20118;-80
2021/10/06 05:40:05;;;;;;;9.70;6.47;;;;;;;11.51;100.00;100540.97;4793126;29;20027;-79
2021/10/06 05:42:31;;;;;;;9.00;6.65;;;;;;;11.52;100.00;100539.94;4774620;29;20120;-79
2021/10/06 05:44:56;;;;;;;8.85;6.85;;;;;;;11.50;100.00;100536.63;4790142;29;20371;-79
2021/10/06 05:47:22;;;;;;;7.80;6.95;;;;;;;11.55;100.00;100544.91;4772271;30;20122;-79
2021/10/06 05:49:47;;;;;;;8.73;6.35;;;;;;;11.56;100.00;100549.28;4788911;29;20041;-79
2021/10/06 05:52:12;;;;;;;11.32;7.80;;;;;;;11.58;100.00;100560.66;4790646;29;20039;-79
2021/10/06 05:54:38;;;;;;;12.95;7.88;;;;;;;11.60;100.00;100569.34;4774384;29;20492;-79
2021/10/06 05:57:03;;;;;;;6.43;5.80;;;;;;;11.55;100.00;100557.56;4757253;29;20431;-79
2021/10/06 05:59:31;;;;;;;11.77;7.00;;;;;;;11.58;100.00;100570.59;4792519;29;20031;-79
2021/10/06 06:01:56;;;;;;;8.05;6.32;;;;;;;11.61;100.00;100572.88;4760179;30;20040;-79
2021/10/06 06:04:21;;;;;;;7.53;5.93;;;;;;;11.66;100.00;100584.69;4772547;29;20051;-78
2021/10/06 06:06:47;;;;;;;7.63;5.72;;;;;;;11.68;100.00;100582.59;4788730;29;20042;-79
2021/10/06 06:09:13;;;;;;;7.13;5.57;;;;;;;11.68;100.00;100593.38;4757480;29;20513;-79
2021/10/06 06:11:39;;;;;;;6.53;5.03;;;;;;;11.72;100.00;100600.03;4775104;29;20031;-79
2021/10/06 06:14:05;;;;;;;10.27;5.95;;;;;;;11.71;100.00;100590.25;4793739;29;20043;-79
2021/10/06 06:16:32;;;;;;;7.07;6.20;;;;;;;11.73;100.00;100603.53;4788137;29;20035;-79
2021/10/06 06:18:58;;;;;;;8.32;5.35;;;;;;;11.74;100.00;100607.88;4772503;29;20046;-78
2021/10/06 06:21:23;;;;;;;5.93;5.32;;;;;;;11.77;100.00;100624.47;4787631;29;20035;-78
2021/10/06 06:23:49;;;;;;;8.63;4.90;;;;;;;11.75;100.00;100623.00;4776403;29;20031;-77
2021/10/06 06:26:15;;;;;;;5.20;4.20;;;;;;;11.81;100.00;100635.63;4770474;29;20362;-79
2021/10/06 06:28:40;;;;;;;5.88;3.38;;;;;;;11.82;100.00;100637.31;4757212;29;20575;-78
2021/10/06 06:31:07;;;;;;;4.63;3.10;;;;;;;11.85;100.00;100646.84;4771544;29;20031;-78
2021/10/06 06:33:33;;;;;;;6.82;2.90;;;;;;;11.80;100.00;100636.69;4787937;29;20035;-78
2021/10/06 06:35:59;;;;;;;2.97;2.67;;;;;;;11.88;100.00;100652.66;4788051;29;20047;-78
2021/10/06 06:38:28;;;;;;;3.65;2.38;;;;;;;11.90;100.00;100661.38;4787780;29;20058;-78
2021/10/06 06:40:53;;;;;;;5.07;2.75;;;;;;;11.86;100.00;100649.38;4775667;30;20478;-79
2021/10/06 06:43:19;;;;;;;3.90;2.20;;;;;;;11.86;100.00;100648.53;4773763;29;20130;-78
2021/10/06 06:45:44;;;;;;;2.22;2.03;;;;;;;11.90;100.00;100655.16;4768742;29;20043;-79
2021/10/06 06:48:10;;;;;;;3.88;1.90;;;;;;;11.93;100.00;100660.94;4788622;29;20035;-78
2021/10/06 06:50:35;;;;;;;2.83;1.67;;;;;;;11.92;100.00;100662.00;4786816;29;20035;-78
2021/10/06 06:53:01;;;;;;;5.65;1.90;;;;;;;11.95;100.00;100666.13;4756111;29;20370;-78
2021/10/06 06:55:26;;;;;;;4.00;1.58;;;;;;;11.98;100.00;100673.78;4772682;30;20127;-78
2021/10/06 06:57:52;;;;;;;6.13;1.75;;;;;;;11.97;100.00;100674.84;4765222;29;20046;-78
2021/10/06 07:00:18;;;;;;;3.00;1.73;;;;;;;11.96;100.00;100673.19;4787715;29;20054;-78
2021/10/06 07:02:43;;;;;;;4.22;1.70;;;;;;;12.03;100.00;100681.25;4787921;29;20027;-78
2021/10/06 07:05:08;;;;;;;11.40;1.85;;;;;;;12.09;100.00;100685.81;4787246;29;20051;-78
2021/10/06 07:07:34;;;;;;;2.78;1.77;;;;;;;12.10;100.00;100687.47;4771422;29;20058;-78
2021/10/06 07:09:59;;;;;;;4.15;1.70;;;;;;;12.11;100.00;100694.50;4771537;29;20038;-78
2021/10/06 07:12:25;;;;;;;4.53;1.75;;;;;;;12.15;100.00;100701.97;4786966;29;20042;-79
2021/10/06 07:14:51;;;;;;;5.75;1.63;;;;;;;12.18;100.00;100711.50;4771146;29;20035;-78
2021/10/06 07:17:18;;;;;;;3.85;1.40;;;;;;;12.18;100.00;100711.50;4788449;29;20058;-78
2021/10/06 07:19:46;;;;;;;4.63;1.65;;;;;;;12.18;100.00;100708.78;4772480;30;20031;-78
2021/10/06 07:22:12;;;;;;;3.78;1.40;;;;;;;12.18;100.00;100723.09;4777254;30;20049;-78
2021/10/06 07:24:37;;;;;;;5.45;1.63;;;;;;;12.18;100.00;100725.81;4779775;30;20114;-79
2021/10/06 07:27:03;;;;;;;4.53;1.85;;;;;;;12.20;100.00;100731.00;4758322;30;20508;-78
2021/10/06 07:29:28;;;;;;;3.30;1.17;;;;;;;12.18;100.00;100739.28;4787885;29;20522;-79
2021/10/06 07:31:54;;;;;;;2.60;1.38;;;;;;;12.17;100.00;100748.44;4779251;29;20043;-78
2021/10/06 07:34:19;;;;;;;3.58;1.20;;;;;;;12.16;100.00;100746.78;4787116;29;20116;-78
2021/10/06 07:36:45;;;;;;;3.00;1.35;;;;;;;12.17;100.00;100750.31;4755940;29;20050;-78
2021/10/06 07:39:10;;;;;;;4.18;1.33;;;;;;;12.17;100.00;100756.53;4768816;29;20076;-79
2021/10/06 07:41:36;;;;;;;3.17;1.38;;;;;;;12.18;100.00;100754.66;4771191;29;20459;-78
2021/10/06 07:44:02;;;;;;;6.80;1.40;;;;;;;12.17;100.00;100764.63;4787163;29;20039;-78
2021/10/06 07:46:27;;;;;;;5.05;1.40;;;;;;;12.23;100.00;100763.78;4786700;29;20031;-78
2021/10/06 07:48:53;;;;;;;3.85;1.73;;;;;;;12.25;100.00;100770.81;4771290;30;20043;-78
2021/10/06 07:51:19;;;;;;;2.75;1.40;;;;;;;12.28;100.00;100779.31;4770701;30;20471;-79
2021/10/06 07:53:45;;;;;;;5.22;1.52;;;;;;;12.32;100.00;100785.16;4786925;29;20058;-79
2021/10/06 07:56:12;;;;;;;4.68;1.45;;;;;;;12.34;100.00;100796.56;4787163;29;20414;-79
2021/10/06 07:58:38;;;;;;;7.50;1.75;;;;;;;12.35;100.00;100807.16;4742162;29;20378;-78
2021/10/06 08:01:03;;;;;;;5.22;1.50;;;;;;;12.32;100.00;100801.34;4771135;29;20073;-78
2021/10/06 08:03:29;;;;;;;6.22;1.95;;;;;;;12.33;100.00;100805.69;4767958;29;20071;-78
2021/10/06 08:05:54;;;;;;;4.07;1.90;;;;;;;12.30;100.00;100811.50;4786834;29;20527;-78
2021/10/06 08:08:20;;;;;;;3.75;1.98;;;;;;;12.39;100.00;100821.88;4771352;29;20047;-78
2021/10/06 08:10:46;;;;;;;5.78;2.10;;;;;;;12.39;100.00;100823.75;4771482;29;20050;-78
2021/10/06 08:13:11;;;;;;;3.45;1.90;;;;;;;12.49;100.00;100829.53;4768860;29;20470;-78
2021/10/06 08:15:37;;;;;;;3.40;1.70;;;;;;;12.65;100.00;100825.56;4749699;30;20043;-78
2021/10/06 08:18:03;;;;;;;3.80;1.60;;;;;;;12.77;100.00;100823.84;4787520;29;20035;-78
2021/10/06 08:20:33;;;;;;;6.13;1.30;;;;;;;12.83;100.00;100833.78;4771364;30;20035;-79
2021/10/06 08:23:03;;;;;;;3.88;1.30;;;;;;;12.85;100.00;100841.69;4786635;29;20042;-78
2021/10/06 08:25:28;;;;;;;3.83;1.15;;;;;;;12.91;100.00;100854.31;4771953;29;20031;-79
2021/10/06 08:27:54;;;;;;;3.38;1.10;;;;;;;12.97;100.00;100860.75;4790303;29;20037;-77
2021/10/06 08:30:21;;;;;;;4.03;1.15;;;;;;;13.05;100.00;100860.53;4778537;29;20474;-78
2021/10/06 08:32:47;;;;;;;5.70;1.20;;;;;;;13.13;100.00;100869.19;4775198;29;20061;-79
2021/10/06 08:35:12;;;;;;;2.38;1.13;;;;;;;13.16;100.00;100859.84;4772615;29;20775;-79
2021/10/06 08:37:37;;;;;;;4.22;0.93;;;;;;;13.15;100.00;100864.41;4779414;29;20501;-79
2021/10/06 08:40:04;;;;;;;1.45;0.80;;;;;;;13.21;100.00;100872.69;4797988;29;20035;-79
2021/10/06 08:42:31;;;;;;;3.10;0.90;;;;;;;13.25;100.00;100882.91;4787433;30;20043;-80
2021/10/06 08:45:00;;;;;;;2.97;1.02;;;;;;;13.28;100.00;100882.47;4798595;29;20023;-80
2021/10/06 08:47:25;;;;;;;1.58;0.85;;;;;;;13.35;100.00;100879.75;4798158;29;20022;-80
2021/10/06 08:49:51;;;;;;;5.28;1.10;;;;;;;13.39;100.00;100880.97;4789793;29;20039;-80
2021/10/06 08:52:16;;;;;;;2.72;0.88;;;;;;;13.47;100.00;100888.81;4798588;29;20077;-81
2021/10/06 08:54:41;;;;;;;3.03;1.10;;;;;;;13.55;100.00;100899.38;4776469;29;20066;-79
2021/10/06 08:57:14;;;;;;;2.08;0.82;;;;;;;13.60;100.00;100898.72;4762026;29;20035;-80
2021/10/06 08:59:40;;;;;;;2.97;0.93;;;;;;;13.71;100.00;100908.88;4775531;29;20492;-80
2021/10/06 09:02:11;;;;;;;3.72;0.80;;;;;;;13.68;100.00;100906.59;4791699;29;20058;-79
2021/10/06 09:04:36;;;;;;;3.92;0.90;;;;;;;13.73;100.00;100922.16;4792163;29;20559;-79
2021/10/06 09:07:03;;;;;;;4.75;1.10;;;;;;;13.69;100.00;100924.47;4760798;30;20039;-80
2021/10/06 09:09:32;;;;;;;4.57;0.98;;;;;;;13.72;100.00;100934.03;4781619;30;20031;-80
2021/10/06 09:11:59;;;;;;;2.80;1.10;;;;;;;13.74;100.00;100938.19;4796258;29;20040;-79
2021/10/06 09:14:25;;;;;;;6.55;1.33;;;;;;;13.72;100.00;100936.75;4760506;29;20050;-79
2021/10/06 09:17:07;;;;;;;4.57;1.30;;;;;;;13.74;100.00;100950.84;4769234;30;20027;-79
2021/10/06 09:19:36;;;;;;;5.03;1.50;;;;;;;13.78;100.00;100950.22;4759201;30;20457;-79
2021/10/06 09:22:02;;;;;;;2.95;1.20;;;;;;;13.80;100.00;100953.53;4785572;29;20110;-79
2021/10/06 09:24:58;;;;;;;5.00;1.20;;;;;;;13.85;100.00;100959.13;4780761;29;20597;-79
2021/10/06 09:27:30;;;;;;;4.47;1.00;;;;;;;13.86;100.00;100959.94;4787530;29;20031;-79
2021/10/06 09:30:15;;;;;;;1.60;0.80;;;;;;;13.72;100.00;100972.72;4783425;29;20062;-80
2021/10/06 09:32:43;;;;;;;2.15;0.70;;;;;;;13.66;100.00;100970.88;4743301;29;20463;-79
2021/10/06 09:35:20;;;;;;;1.30;0.50;;;;;;;13.51;100.00;100976.56;4766962;30;20043;-78
2021/10/06 09:37:51;;;;;;;1.55;0.57;;;;;;;13.50;100.00;100977.59;4768754;29;20027;-79
2021/10/06 09:40:22;;;;;;;0.77;0.45;;;;;;;13.45;100.00;100974.72;4793190;29;20027;-80
2021/10/06 09:43:06;;;;;;;1.08;0.40;;;;;;;13.45;100.00;100990.09;4782364;29;20035;-80
2021/10/06 09:45:37;;;;;;;1.20;0.40;;;;;;;13.33;100.00;100979.94;4792500;29;20019;-80
2021/10/06 09:48:08;;;;;;;0.70;0.40;;;;;;;13.26;100.00;100989.13;4778020;29;20035;-80
2021/10/06 09:50:35;;;;;;;1.48;0.40;;;;;;;13.22;100.00;100995.97;4776654;29;20047;-80
2021/10/06 09:53:06;;;;;;;0.98;0.52;;;;;;;13.21;100.00;100999.69;4784115;30;20185;-80
2021/10/06 09:55:35;;;;;;;2.83;0.60;;;;;;;13.28;100.00;101003.25;4778748;29;20042;-80
2021/10/06 09:58:01;;;;;;;2.00;0.75;;;;;;;13.29;100.00;101015.72;4778596;29;20043;-80
2021/10/06 10:00:28;;;;;;;1.60;0.50;;;;;;;13.27;100.00;101018.63;4765623;30;20115;-80
2021/10/06 10:02:54;;;;;;;1.52;0.50;;;;;;;13.24;100.00;101029.84;4791900;29;20038;-81
2021/10/06 10:05:20;;;;;;;0.50;0.50;;;;;;;13.29;100.00;101034.63;4792365;29;20055;-79
2021/10/06 10:07:45;;;;;;;4.05;0.60;;;;;;;13.13;100.00;101006.16;4770821;30;20348;-79
2021/10/06 10:10:12;;;;;;;0.95;0.50;;;;;;;13.15;100.00;101021.13;4775925;29;20031;-79
2021/10/06 10:12:38;;;;;;;1.27;0.50;;;;;;;13.17;100.00;101026.31;4791653;29;20073;-79
2021/10/06 10:15:05;;;;;;;1.25;0.50;;;;;;;13.17;100.00;101034.41;4785501;29;20038;-80
2021/10/06 10:17:30;;;;;;;0.68;0.40;;;;;;;13.18;100.00;101046.91;4791058;30;20031;-79
2021/10/06 10:19:58;;;;;;;5.47;0.70;;;;;;;13.15;100.00;101052.72;4775688;30;20042;-79
2021/10/06 10:22:28;;;;;;;1.88;0.65;;;;;;;13.08;100.00;101035.69;4789934;29;20110;-80
2021/10/06 10:24:53;;;;;;;2.72;0.68;;;;;;;13.20;100.00;101044.81;4791370;29;20446;-79
2021/10/06 10:27:21;;;;;;;1.42;0.60;;;;;;;13.36;100.00;101043.56;4790510;30;20043;-79
2021/10/06 10:29:56;;;;;;;2.03;0.65;;;;;;;13.55;100.00;101055.38;4790670;29;20042;-80
2021/10/06 10:32:26;;;;;;;2.92;0.70;;;;;;;13.66;100.00;101065.50;4775485;30;20035;-79
2021/10/06 10:35:06;;;;;;;3.97;0.73;;;;;;;13.74;100.00;101049.06;4789932;30;20493;-79
2021/10/06 10:37:53;;;;;;;1.42;0.70;;;;;;;13.92;100.00;101061.88;4790174;29;20130;-79
2021/10/06 10:40:40;;;;;;;1.55;0.60;;;;;;;13.99;100.00;101070.78;4788100;29;20050;-80
2021/10/06 10:43:10;;;;;;;3.45;0.80;;;;;;;14.10;100.00;101070.13;4774698;29;20057;-79
2021/10/06 10:45:40;;;;;;;1.88;0.50;;;;;;;14.17;100.00;101078.22;4767633;29;20136;-79
2021/10/06 10:48:09;;;;;;;2.00;0.70;;;;;;;14.20;100.00;101079.63;4760922;30;20036;-80
2021/10/06 10:50:39;;;;;;;1.75;0.73;;;;;;;14.26;100.00;101087.72;4759788;29;20031;-79
2021/10/06 10:53:06;;;;;;;3.10;0.60;;;;;;;14.27;100.00;101075.88;4775215;30;20050;-80
2021/10/06 10:55:58;;;;;;;3.58;0.80;;;;;;;14.42;100.00;101097.22;4778566;30;20042;-80
2021/10/06 10:58:30;;;;;;;0.60;0.40;;;;;;;14.37;100.00;101097.06;4793657;30;20027;-80
2021/10/06 11:00:57;;;;;;;1.80;0.60;;;;;;;14.29;100.00;101100.81;4779056;30;20040;-79
2021/10/06 11:03:23;;;;;;;1.75;0.60;;;;;;;14.33;100.00;101110.16;4792985;29;20118;-79
2021/10/06 11:05:58;;;;;;;2.28;0.60;;;;;;;14.33;100.00;101112.88;4812364;29;20490;-82
2021/10/06 11:08:33;;;;;;;2.63;0.68;;;;;;;14.14;100.00;101073.25;4799450;29;20123;-80
2021/10/06 11:11:18;;;;;;;1.73;0.60;;;;;;;14.39;100.00;101116.59;4791445;29;20035;-79
2021/10/06 11:13:46;;;;;;;1.60;0.60;;;;;;;14.45;100.00;101117.63;4771997;30;20043;-79
2021/10/06 11:16:12;;;;;;;0.82;0.60;;;;;;;14.54;100.00;101113.66;4787936;29;20050;-79